createdAt,value
2022-09-17T00:01:27.376Z,0.43
2022-09-17T00:03:56.061Z,0.20
2022-09-17T00:06:24.382Z,0.20
2022-09-17T00:08:52.134Z,0.20
2022-09-17T00:11:23.799Z,0.10
2022-09-17T00:13:52.202Z,0.20
2022-09-17T00:16:27.537Z,0.20
2022-09-17T00:18:55.481Z,0.10
2022-09-17T00:21:23.153Z,0.23
2022-09-17T00:23:53.771Z,0.20
2022-09-17T00:26:21.092Z,0.10
2022-09-17T00:28:52.371Z,0.10
2022-09-17T00:31:19.940Z,0.37
2022-09-17T00:33:47.293Z,0.10
2022-09-17T00:36:14.699Z,0.10
2022-09-17T00:38:42.244Z,0.10
2022-09-17T00:41:09.782Z,0.10
2022-09-17T00:43:37.135Z,0.10
2022-09-17T00:46:07.433Z,0.10
2022-09-17T00:48:34.833Z,0.10
2022-09-17T00:51:02.507Z,0.00
2022-09-17T00:53:30.757Z,0.20
2022-09-17T00:56:07.749Z,0.10
2022-09-17T00:58:41.015Z,0.13
2022-09-17T01:01:08.759Z,0.10
2022-09-17T01:03:36.223Z,0.20
2022-09-17T01:06:06.276Z,0.20
2022-09-17T01:08:39.518Z,0.20
2022-09-17T01:11:30.388Z,0.10
2022-09-17T01:14:16.310Z,0.20
2022-09-17T01:16:54.264Z,0.70
2022-09-17T01:19:28.442Z,0.37
2022-09-17T01:21:58.775Z,0.60
2022-09-17T01:24:26.221Z,0.87
2022-09-17T01:27:02.652Z,0.80
2022-09-17T01:29:32.979Z,0.50
2022-09-17T01:32:09.382Z,0.60
2022-09-17T01:34:39.790Z,0.30
2022-09-17T01:37:14.841Z,0.50
2022-09-17T01:40:05.263Z,0.50
2022-09-17T01:42:38.465Z,0.50
2022-09-17T01:45:09.352Z,0.40
2022-09-17T01:47:39.058Z,0.57
2022-09-17T01:50:10.037Z,0.40
2022-09-17T01:52:38.952Z,0.50
2022-09-17T01:55:08.780Z,0.30
2022-09-17T01:57:36.064Z,0.20
2022-09-17T02:00:06.311Z,0.10
2022-09-17T02:02:36.647Z,0.00
2022-09-17T02:05:06.699Z,0.10
2022-09-17T02:07:38.819Z,0.10
2022-09-17T02:10:06.289Z,0.20
2022-09-17T02:12:38.935Z,0.10
2022-09-17T02:15:08.684Z,0.13
2022-09-17T02:17:38.786Z,0.17
2022-09-17T02:20:06.995Z,0.10
2022-09-17T02:22:34.313Z,0.10
2022-09-17T02:25:11.520Z,0.23
2022-09-17T02:27:38.864Z,0.30
2022-09-17T02:30:06.812Z,0.20
2022-09-17T02:32:34.698Z,0.20
2022-09-17T02:35:02.027Z,0.30
2022-09-17T02:37:29.510Z,0.50
2022-09-17T02:39:57.020Z,0.20
2022-09-17T02:42:30.183Z,0.30
2022-09-17T02:45:09.395Z,0.37
2022-09-17T02:47:55.384Z,0.20
2022-09-17T02:50:31.349Z,0.30
2022-09-17T02:53:06.477Z,0.30
2022-09-17T02:55:38.909Z,0.20
2022-09-17T02:58:12.723Z,0.30
2022-09-17T03:00:40.877Z,0.27
2022-09-17T03:03:28.644Z,0.20
2022-09-17T03:05:56.617Z,0.13
2022-09-17T03:08:29.672Z,0.30
2022-09-17T03:10:57.484Z,0.30
2022-09-17T03:13:24.880Z,0.20
2022-09-17T03:15:52.614Z,0.20
2022-09-17T03:18:20.165Z,0.20
2022-09-17T03:20:47.560Z,0.30
2022-09-17T03:23:14.987Z,0.20
2022-09-17T03:25:42.417Z,0.13
2022-09-17T03:28:09.777Z,0.20
2022-09-17T03:30:37.088Z,0.30
2022-09-17T03:33:04.481Z,0.30
2022-09-17T03:35:31.830Z,0.20
2022-09-17T03:38:02.341Z,0.37
2022-09-17T03:40:29.812Z,0.23
2022-09-17T03:42:57.200Z,0.20
2022-09-17T03:45:24.443Z,0.37
2022-09-17T03:47:51.812Z,0.40
2022-09-17T03:50:19.277Z,0.47
2022-09-17T03:52:46.600Z,0.40
2022-09-17T03:55:14.021Z,0.43
2022-09-17T03:57:41.455Z,0.23
2022-09-17T04:00:09.064Z,0.40
2022-09-17T04:02:36.505Z,0.40
2022-09-17T04:05:03.935Z,0.50
2022-09-17T04:07:31.256Z,0.40
2022-09-17T04:10:00.553Z,0.40
2022-09-17T04:12:27.962Z,0.50
2022-09-17T04:14:55.273Z,0.40
2022-09-17T04:17:22.643Z,0.50
2022-09-17T04:19:50.185Z,0.47
2022-09-17T04:22:17.906Z,0.60
2022-09-17T04:24:45.250Z,0.60
2022-09-17T04:27:12.616Z,0.40
2022-09-17T04:29:39.957Z,0.60
2022-09-17T04:32:07.473Z,0.60
2022-09-17T04:34:35.035Z,0.30
2022-09-17T04:37:02.335Z,0.20
2022-09-17T04:39:29.773Z,0.40
2022-09-17T04:41:57.192Z,0.30
2022-09-17T04:44:24.566Z,0.40
2022-09-17T04:46:52.191Z,0.47
2022-09-17T04:49:19.603Z,0.30
2022-09-17T04:51:46.863Z,0.30
2022-09-17T04:54:14.859Z,0.30
2022-09-17T04:56:42.194Z,0.20
2022-09-17T04:59:09.651Z,0.37
2022-09-17T05:01:37.034Z,0.50
2022-09-17T05:04:04.612Z,0.40
2022-09-17T05:06:32.073Z,0.60
2022-09-17T05:08:59.447Z,0.20
2022-09-17T05:11:26.849Z,0.40
2022-09-17T05:13:54.393Z,0.30
2022-09-17T05:16:21.703Z,0.40
2022-09-17T05:18:51.242Z,0.30
2022-09-17T05:21:19.233Z,0.30
2022-09-17T05:23:46.585Z,0.43
2022-09-17T05:26:14.010Z,0.30
2022-09-17T05:28:41.432Z,0.30
2022-09-17T05:31:08.995Z,0.30
2022-09-17T05:33:36.483Z,0.50
2022-09-17T05:36:04.002Z,0.30
2022-09-17T05:38:31.424Z,0.37
2022-09-17T05:40:58.842Z,0.20
2022-09-17T05:43:26.234Z,0.30
2022-09-17T05:45:54.736Z,0.37
2022-09-17T05:48:22.123Z,0.20
2022-09-17T05:50:49.542Z,0.37
2022-09-17T05:53:16.970Z,0.30
2022-09-17T05:55:44.444Z,0.30
2022-09-17T05:58:11.757Z,0.20
2022-09-17T06:00:39.532Z,0.40
2022-09-17T06:03:07.031Z,0.20
2022-09-17T06:05:34.385Z,0.30
2022-09-17T06:08:01.845Z,0.20
2022-09-17T06:10:29.266Z,0.20
2022-09-17T06:13:00.198Z,0.30
2022-09-17T06:15:28.235Z,0.37
2022-09-17T06:17:55.977Z,0.30
2022-09-17T06:20:23.661Z,0.40
2022-09-17T06:22:56.165Z,0.20
2022-09-17T06:25:23.912Z,0.30
2022-09-17T06:27:51.293Z,0.50
2022-09-17T06:30:18.841Z,0.37
2022-09-17T06:32:46.382Z,0.20
2022-09-17T06:35:13.741Z,0.30
2022-09-17T06:37:41.178Z,0.40
2022-09-17T06:40:09.330Z,0.27
2022-09-17T06:42:36.757Z,0.20
2022-09-17T06:45:08.120Z,0.20
2022-09-17T06:47:36.922Z,0.20
2022-09-17T06:50:07.106Z,0.40
2022-09-17T06:52:34.502Z,0.30
2022-09-17T06:55:01.957Z,0.43
2022-09-17T06:57:29.275Z,0.40
2022-09-17T06:59:56.608Z,0.30
2022-09-17T07:02:24.048Z,0.40
2022-09-17T07:04:51.361Z,0.50
2022-09-17T07:07:18.834Z,0.40
2022-09-17T07:09:46.246Z,0.50
2022-09-17T07:12:14.118Z,0.40
2022-09-17T07:14:41.474Z,0.37
2022-09-17T07:17:09.063Z,0.30
2022-09-17T07:19:36.363Z,0.30
2022-09-17T07:22:06.144Z,0.40
2022-09-17T07:24:34.036Z,0.50
2022-09-17T07:27:01.836Z,0.30
2022-09-17T07:29:29.308Z,0.40
2022-09-17T07:31:58.489Z,0.50
2022-09-17T07:34:28.196Z,0.40
2022-09-17T07:36:55.584Z,0.40
2022-09-17T07:39:22.982Z,0.40
2022-09-17T07:41:50.478Z,0.60
2022-09-17T07:44:18.642Z,0.40
2022-09-17T07:46:46.098Z,0.40
2022-09-17T07:49:13.628Z,0.30
2022-09-17T07:51:40.926Z,0.30
2022-09-17T07:54:11.063Z,0.40
2022-09-17T07:56:38.415Z,0.30
2022-09-17T07:59:05.796Z,0.37
2022-09-17T08:01:36.944Z,0.33
2022-09-17T08:04:04.783Z,0.63
2022-09-17T08:06:32.583Z,0.50
2022-09-17T08:09:00.674Z,0.40
2022-09-17T08:14:16.878Z,0.23
2022-09-17T08:16:46.540Z,0.40
2022-09-17T08:19:14.108Z,0.63
2022-09-17T08:21:41.607Z,0.50
2022-09-17T08:24:09.085Z,0.40
2022-09-17T08:26:36.389Z,0.40
2022-09-17T08:29:03.967Z,0.40
2022-09-17T08:31:33.511Z,0.60
2022-09-17T08:34:01.473Z,0.67
2022-09-17T08:36:28.991Z,0.50
2022-09-17T08:38:58.324Z,0.30
2022-09-17T08:41:38.106Z,0.57
2022-09-17T08:44:06.583Z,0.47
2022-09-17T08:46:54.328Z,0.40
2022-09-17T08:49:36.053Z,0.40
2022-09-17T08:52:10.198Z,0.37
2022-09-17T08:54:43.286Z,0.37
2022-09-17T08:57:24.027Z,0.47
2022-09-17T08:59:54.176Z,0.60
2022-09-17T09:02:28.361Z,0.30
2022-09-17T09:05:19.000Z,0.37
2022-09-17T09:07:49.384Z,0.30
2022-09-17T09:10:27.925Z,0.40
2022-09-17T09:12:56.589Z,0.27
2022-09-17T09:15:33.447Z,0.30
2022-09-17T09:18:04.221Z,0.50
2022-09-17T09:20:34.657Z,0.30
2022-09-17T09:23:08.559Z,0.30
2022-09-17T09:25:42.444Z,0.40
2022-09-17T09:28:16.006Z,0.20
2022-09-17T09:31:02.025Z,0.30
2022-09-17T09:33:33.815Z,0.27
2022-09-17T09:36:01.285Z,0.40
2022-09-17T09:38:32.469Z,0.40
2022-09-17T09:41:12.027Z,0.30
2022-09-17T09:44:03.101Z,0.40
2022-09-17T09:46:31.291Z,0.30
2022-09-17T09:48:58.749Z,0.37
2022-09-17T09:51:41.426Z,0.53
2022-09-17T09:54:18.691Z,0.63
2022-09-17T09:56:58.965Z,0.50
2022-09-17T09:59:26.981Z,0.33
2022-09-17T10:01:54.586Z,0.40
2022-09-17T10:04:29.047Z,0.50
2022-09-17T10:07:03.128Z,0.40
2022-09-17T10:09:32.729Z,0.33
2022-09-17T10:12:05.271Z,0.43
2022-09-17T10:14:36.781Z,0.40
2022-09-17T10:17:13.368Z,0.50
2022-09-17T10:19:41.024Z,0.30
2022-09-17T10:22:20.239Z,0.30
2022-09-17T10:24:48.385Z,0.40
2022-09-17T10:27:17.718Z,0.30
2022-09-17T10:29:49.268Z,0.40
2022-09-17T10:32:17.623Z,0.40
2022-09-17T10:34:58.844Z,0.40
2022-09-17T10:37:52.632Z,0.30
2022-09-17T10:40:20.177Z,0.30
2022-09-17T10:42:48.776Z,0.37
2022-09-17T10:45:29.451Z,0.30
2022-09-17T10:47:57.623Z,0.30
2022-09-17T10:50:27.969Z,0.20
2022-09-17T10:52:56.980Z,0.20
2022-09-17T10:55:37.862Z,0.30
2022-09-17T10:58:08.356Z,0.40
2022-09-17T11:00:38.713Z,0.60
2022-09-17T11:03:12.280Z,0.33
2022-09-17T11:05:39.635Z,0.40
2022-09-17T11:08:09.709Z,0.67
2022-09-17T11:10:49.754Z,0.50
2022-09-17T11:13:17.136Z,0.30
2022-09-17T11:15:54.880Z,0.20
2022-09-17T11:18:40.526Z,0.30
2022-09-17T11:21:10.885Z,0.20
2022-09-17T11:24:02.772Z,0.70
2022-09-17T11:26:42.183Z,0.30
2022-09-17T11:29:28.109Z,0.20
2022-09-17T11:32:12.691Z,0.30
2022-09-17T11:34:43.827Z,0.30
2022-09-17T11:37:17.353Z,0.20
2022-09-17T11:40:04.361Z,0.30
2022-09-17T11:42:33.952Z,0.30
2022-09-17T11:45:21.567Z,0.30
2022-09-17T11:47:54.766Z,0.30
2022-09-17T11:50:24.918Z,0.30
2022-09-17T11:53:05.369Z,0.20
2022-09-17T11:55:35.703Z,0.20
2022-09-17T11:58:38.395Z,0.40
2022-09-17T12:01:10.570Z,0.30
2022-09-17T12:03:43.657Z,0.20
2022-09-17T12:06:15.376Z,0.50
2022-09-17T12:09:06.341Z,0.30
2022-09-17T12:11:46.389Z,0.20
2022-09-17T12:14:16.714Z,0.20
2022-09-17T12:16:46.298Z,0.40
2022-09-17T12:19:18.633Z,0.23
2022-09-17T12:21:47.683Z,0.30
2022-09-17T12:24:19.356Z,0.20
2022-09-17T12:26:49.242Z,0.20
2022-09-17T12:29:22.628Z,0.27
2022-09-17T12:32:12.787Z,0.20
2022-09-17T12:34:40.136Z,0.20
2022-09-17T12:37:22.586Z,0.43
2022-09-17T12:40:14.170Z,0.37
2022-09-17T12:42:50.521Z,0.30
2022-09-17T12:45:36.550Z,0.20
2022-09-17T12:48:12.538Z,0.30
2022-09-17T12:50:58.518Z,0.30
2022-09-17T12:53:37.166Z,0.30
2022-09-17T12:56:04.689Z,0.30
2022-09-17T12:58:32.004Z,0.30
2022-09-17T13:01:22.636Z,0.27
2022-09-17T13:04:13.344Z,0.20
2022-09-17T13:07:00.188Z,0.30
2022-09-17T13:09:39.289Z,0.40
2022-09-17T13:12:18.900Z,0.23
2022-09-17T13:14:48.862Z,0.30
2022-09-17T13:17:39.463Z,0.20
2022-09-17T13:20:14.743Z,0.40
2022-09-17T13:22:49.099Z,0.47
2022-09-17T13:25:17.902Z,0.23
2022-09-17T13:27:45.933Z,0.20
2022-09-17T13:30:16.260Z,0.30
2022-09-17T13:32:47.322Z,0.30
2022-09-17T13:35:14.759Z,0.20
2022-09-17T13:37:45.946Z,0.37
2022-09-17T13:40:30.195Z,0.30
2022-09-17T13:42:58.523Z,0.20
2022-09-17T13:45:27.106Z,0.33
2022-09-17T13:47:58.890Z,0.30
2022-09-17T13:50:36.823Z,0.30
2022-09-17T13:53:07.423Z,0.40
2022-09-17T13:55:51.246Z,0.20
2022-09-17T13:58:21.612Z,0.30
2022-09-17T14:00:49.216Z,0.40
2022-09-17T14:03:33.729Z,0.30
2022-09-17T14:06:08.737Z,0.30
2022-09-17T14:08:45.369Z,0.20
2022-09-17T14:11:28.648Z,0.23
2022-09-17T14:13:56.835Z,0.27
2022-09-17T14:16:40.551Z,0.10
2022-09-17T14:19:17.214Z,0.30
2022-09-17T14:21:57.454Z,0.30
2022-09-17T14:24:45.155Z,0.27
2022-09-17T14:27:21.495Z,0.40
2022-09-17T14:29:59.731Z,0.40
2022-09-17T14:32:37.014Z,0.20
2022-09-17T14:35:17.881Z,0.20
2022-09-17T14:37:49.607Z,0.20
2022-09-17T14:40:18.993Z,0.20
2022-09-17T14:42:48.227Z,0.30
2022-09-17T14:45:18.314Z,0.30
2022-09-17T14:47:45.737Z,0.60
2022-09-17T14:50:23.266Z,0.40
2022-09-17T14:52:51.767Z,0.20
2022-09-17T14:55:26.766Z,0.40
2022-09-17T14:57:58.684Z,0.40
2022-09-17T15:00:34.472Z,0.30
2022-09-17T15:03:02.005Z,0.30
2022-09-17T15:05:33.125Z,0.33
2022-09-17T15:08:16.999Z,0.20
2022-09-17T15:10:52.672Z,0.23
2022-09-17T15:13:22.352Z,0.27
2022-09-17T15:15:59.165Z,0.30
2022-09-17T15:18:53.031Z,0.30
2022-09-17T15:21:28.111Z,0.30
2022-09-17T15:23:57.236Z,0.27
2022-09-17T15:26:28.671Z,0.30
2022-09-17T15:28:57.420Z,0.30
2022-09-17T15:31:24.935Z,0.30
2022-09-17T15:33:52.353Z,0.40
2022-09-17T15:36:27.562Z,0.23
2022-09-17T15:38:55.211Z,0.33
2022-09-17T15:41:24.750Z,0.30
2022-09-17T15:43:54.738Z,0.33
2022-09-17T15:46:28.825Z,0.30
2022-09-17T15:48:57.076Z,0.30
2022-09-17T15:51:28.361Z,0.30
2022-09-17T15:54:00.259Z,0.40
2022-09-17T15:56:30.083Z,0.23
2022-09-17T15:59:01.846Z,0.30
2022-09-17T16:01:32.453Z,0.20
2022-09-17T16:04:01.953Z,0.33
2022-09-17T16:06:29.461Z,0.50
2022-09-17T16:08:58.077Z,0.23
2022-09-17T16:11:27.310Z,0.30
2022-09-17T16:13:55.878Z,0.50
2022-09-17T16:16:36.682Z,0.50
2022-09-17T16:19:05.913Z,0.30
2022-09-17T16:21:33.536Z,0.20
2022-09-17T16:24:00.948Z,0.30
2022-09-17T16:26:30.513Z,0.20
2022-09-17T16:29:00.323Z,1.83
2022-09-17T16:31:27.821Z,0.33
2022-09-17T16:33:55.622Z,0.40
2022-09-17T16:36:22.966Z,0.33
2022-09-17T16:38:50.408Z,0.30
2022-09-17T16:41:17.759Z,0.33
2022-09-17T16:43:45.134Z,0.33
2022-09-17T16:46:12.804Z,0.30
2022-09-17T16:48:41.333Z,0.30
2022-09-17T16:51:09.397Z,0.30
2022-09-17T16:53:36.914Z,0.33
2022-09-17T16:56:11.886Z,0.70
2022-09-17T16:58:40.332Z,0.40
2022-09-17T17:01:11.649Z,0.47
2022-09-17T17:03:39.144Z,0.47
2022-09-17T17:06:06.597Z,0.67
2022-09-17T17:08:34.462Z,0.67
2022-09-17T17:11:02.135Z,2.27
2022-09-17T17:13:29.580Z,0.60
2022-09-17T17:15:57.120Z,0.40
2022-09-17T17:18:24.834Z,0.87
2022-09-17T17:20:52.350Z,0.80
2022-09-17T17:23:19.737Z,0.50
2022-09-17T17:25:47.536Z,0.50
2022-09-17T17:28:15.077Z,0.30
2022-09-17T17:30:42.411Z,0.60
2022-09-17T17:33:10.584Z,1.00
2022-09-17T17:35:39.872Z,0.70
2022-09-17T17:38:07.230Z,0.60
2022-09-17T17:40:34.833Z,0.37
2022-09-17T17:43:02.351Z,0.40
2022-09-17T17:45:29.792Z,0.40
2022-09-17T17:47:57.214Z,0.30
2022-09-17T17:50:24.695Z,0.50
2022-09-17T17:52:54.554Z,0.50
2022-09-17T17:55:22.214Z,0.50
2022-09-17T17:58:00.236Z,0.37
2022-09-17T18:00:28.623Z,0.47
2022-09-17T18:02:56.122Z,0.30
2022-09-17T18:05:24.287Z,0.40
2022-09-17T18:07:51.666Z,0.53
2022-09-17T18:10:19.848Z,0.40
2022-09-17T18:12:50.778Z,0.40
2022-09-17T18:15:18.346Z,1.07
2022-09-17T18:17:48.082Z,0.80
2022-09-17T18:20:15.504Z,0.63
2022-09-17T18:22:42.913Z,0.50
2022-09-17T18:25:10.377Z,0.47
2022-09-17T18:27:37.780Z,0.40
2022-09-17T18:30:05.401Z,0.50
2022-09-17T18:32:32.961Z,0.40
2022-09-17T18:35:00.317Z,0.40
2022-09-17T18:37:29.258Z,0.60
2022-09-17T18:39:59.106Z,0.47
2022-09-17T18:42:27.266Z,0.60
2022-09-17T18:44:54.653Z,0.40
2022-09-17T18:47:22.018Z,0.30
2022-09-17T18:49:49.382Z,0.40
2022-09-17T18:52:16.858Z,0.30
2022-09-17T18:54:46.084Z,0.50
2022-09-17T18:57:14.576Z,0.40
2022-09-17T18:59:41.991Z,0.50
2022-09-17T19:02:13.112Z,0.53
2022-09-17T19:04:40.602Z,0.50
2022-09-17T19:07:08.027Z,0.50
2022-09-17T19:09:35.950Z,0.40
2022-09-17T19:12:03.511Z,0.40
2022-09-17T19:14:30.845Z,0.30
2022-09-17T19:16:58.237Z,0.40
2022-09-17T19:19:25.592Z,0.10
2022-09-17T19:21:52.993Z,0.27
2022-09-17T19:24:20.387Z,0.40
2022-09-17T19:26:50.912Z,0.50
2022-09-17T19:29:18.564Z,0.57
2022-09-17T19:31:46.032Z,0.40
2022-09-17T19:34:13.514Z,0.40
2022-09-17T19:36:41.074Z,0.27
2022-09-17T19:39:08.464Z,0.40
2022-09-17T19:41:36.338Z,0.37
2022-09-17T19:44:03.933Z,0.30
2022-09-17T19:46:32.424Z,0.33
2022-09-17T19:49:00.712Z,0.43
2022-09-17T19:51:29.904Z,0.50
2022-09-17T19:53:57.445Z,0.40
2022-09-17T19:56:25.854Z,0.20
2022-09-17T19:58:53.310Z,0.47
2022-09-17T20:01:20.881Z,0.60
2022-09-17T20:03:48.488Z,0.50
2022-09-17T20:06:17.530Z,0.30
2022-09-17T20:08:49.353Z,0.40
2022-09-17T20:11:17.356Z,0.63
2022-09-17T20:13:44.959Z,0.50
2022-09-17T20:16:12.369Z,0.77
2022-09-17T20:18:39.926Z,1.40
2022-09-17T20:21:10.229Z,1.07
2022-09-17T20:23:37.837Z,0.50
2022-09-17T20:26:05.453Z,0.43
2022-09-17T20:28:33.146Z,0.47
2022-09-17T20:31:04.906Z,0.40
2022-09-17T20:33:32.381Z,1.30
2022-09-17T20:36:03.429Z,0.70
2022-09-17T20:39:09.913Z,0.43
2022-09-17T20:41:20.121Z,0.37
2022-09-17T20:43:49.341Z,0.70
2022-09-17T20:46:17.358Z,0.60
2022-09-17T20:48:45.010Z,0.40
2022-09-17T20:51:16.627Z,1.03
2022-09-17T20:53:44.683Z,2.00
2022-09-17T20:56:13.723Z,1.93
2022-09-17T20:58:45.529Z,1.60
2022-09-17T21:01:15.039Z,1.50
2022-09-17T21:03:44.551Z,1.00
2022-09-17T21:06:18.891Z,0.67
2022-09-17T21:08:46.667Z,0.70
2022-09-17T21:11:14.544Z,1.10
2022-09-17T21:13:42.051Z,1.10
2022-09-17T21:16:09.998Z,1.77
2022-09-17T21:18:39.784Z,1.67
2022-09-17T21:21:08.277Z,1.50
2022-09-17T21:23:39.702Z,1.00
2022-09-17T21:26:08.542Z,0.90
2022-09-17T21:28:37.044Z,0.80
2022-09-17T21:31:11.507Z,0.60
2022-09-17T21:33:39.444Z,0.60
2022-09-17T21:36:08.265Z,0.60
2022-09-17T21:38:35.692Z,0.50
2022-09-17T21:41:04.713Z,1.10
2022-09-17T21:43:32.356Z,1.10
2022-09-17T21:46:03.510Z,0.77
2022-09-17T21:48:31.661Z,0.80
2022-09-17T21:51:18.382Z,0.90
2022-09-17T21:53:45.974Z,1.00
2022-09-17T21:56:14.903Z,0.90
2022-09-17T21:58:43.384Z,1.23
2022-09-17T22:01:15.413Z,0.70
2022-09-17T22:03:43.556Z,0.77
2022-09-17T22:06:12.322Z,0.50
2022-09-17T22:08:40.215Z,0.50
2022-09-17T22:11:09.032Z,0.60
2022-09-17T22:13:36.987Z,0.80
2022-09-17T22:16:06.275Z,0.80
2022-09-17T22:18:34.402Z,0.83
2022-09-17T22:21:02.467Z,0.60
2022-09-17T22:23:29.909Z,0.70
2022-09-17T22:26:05.102Z,0.60
2022-09-17T22:28:32.771Z,0.40
2022-09-17T22:31:07.744Z,0.57
2022-09-17T22:33:36.142Z,0.60
2022-09-17T22:36:04.671Z,0.40
2022-09-17T22:38:32.115Z,0.70
2022-09-17T22:41:03.767Z,0.80
2022-09-17T22:43:31.447Z,1.13
2022-09-17T22:45:58.887Z,0.90
2022-09-17T22:48:26.444Z,0.70
2022-09-17T22:50:53.957Z,1.10
2022-09-17T22:53:21.463Z,1.60
2022-09-17T22:55:55.782Z,0.60
2022-09-17T22:58:24.496Z,0.70
2022-09-17T23:00:52.719Z,1.67
2022-09-17T23:03:20.203Z,0.60
2022-09-17T23:05:47.641Z,0.60
2022-09-17T23:08:15.482Z,0.50
2022-09-17T23:10:43.454Z,0.63
2022-09-17T23:13:11.329Z,0.60
2022-09-17T23:15:39.244Z,0.50
2022-09-17T23:18:07.672Z,0.50
2022-09-17T23:20:35.047Z,0.60
2022-09-17T23:23:02.551Z,0.50
2022-09-17T23:25:29.920Z,0.60
2022-09-17T23:27:57.474Z,0.60
2022-09-17T23:30:25.726Z,0.50
2022-09-17T23:32:56.992Z,0.47
2022-09-17T23:35:24.732Z,0.70
2022-09-17T23:37:52.347Z,0.40
2022-09-17T23:40:22.029Z,0.87
2022-09-17T23:42:49.442Z,0.50
2022-09-17T23:45:16.815Z,0.60
2022-09-17T23:47:44.320Z,0.37
2022-09-17T23:50:11.765Z,0.50
2022-09-17T23:52:39.160Z,0.70
2022-09-17T23:55:07.463Z,0.60
2022-09-17T23:57:34.933Z,0.60
